createdAt,value
2022-12-09T00:01:16.234Z,13.40
2022-12-09T00:03:44.099Z,18.30
2022-12-09T00:06:24.847Z,16.92
2022-12-09T00:08:52.846Z,13.00
2022-12-09T00:11:21.341Z,14.40
2022-12-09T00:13:57.530Z,18.30
2022-12-09T00:16:25.528Z,20.70
2022-12-09T00:18:53.025Z,15.80
2022-12-09T00:21:24.741Z,13.38
2022-12-09T00:23:54.363Z,11.90
2022-12-09T00:28:51.931Z,14.75
2022-12-09T00:31:24.102Z,17.60
2022-12-09T00:33:54.961Z,13.63
2022-12-09T00:36:23.169Z,14.15
2022-12-09T00:38:51.168Z,17.15
2022-12-09T00:41:18.799Z,16.70
2022-12-09T00:43:47.730Z,21.10
2022-12-09T00:46:16.063Z,15.90
2022-12-09T00:48:48.156Z,20.15
2022-12-09T00:51:21.849Z,21.95
2022-12-09T00:53:53.909Z,22.38
2022-12-09T00:56:23.683Z,21.27
2022-12-09T01:01:18.438Z,20.92
2022-12-09T01:03:45.940Z,25.58
2022-12-09T01:06:20.268Z,20.90
2022-12-09T01:08:48.304Z,24.60
2022-12-09T01:11:25.948Z,26.67
2022-12-09T01:13:57.051Z,28.20
2022-12-09T01:16:26.972Z,32.58
2022-12-09T01:18:58.954Z,31.20
2022-12-09T01:21:30.572Z,23.13
2022-12-09T01:23:57.719Z,27.02
2022-12-09T01:26:25.320Z,20.95
2022-12-09T01:28:54.799Z,30.58
2022-12-09T01:31:24.882Z,23.40
2022-12-09T01:33:54.795Z,22.42
2022-12-09T01:36:26.355Z,17.50
2022-12-09T01:38:54.198Z,25.15
2022-12-09T01:41:22.152Z,31.48
2022-12-09T01:44:07.687Z,18.95
2022-12-09T01:46:34.982Z,40.15
2022-12-09T01:49:02.802Z,18.45
2022-12-09T01:51:31.050Z,20.88
2022-12-09T01:53:59.314Z,38.53
2022-12-09T01:56:31.703Z,30.45
2022-12-09T01:59:06.385Z,19.08
2022-12-09T02:01:34.547Z,33.50
2022-12-09T02:04:02.316Z,19.80
2022-12-09T02:06:30.128Z,19.83
2022-12-09T02:08:58.515Z,34.60
2022-12-09T02:12:14.702Z,18.10
2022-12-09T02:15:16.124Z,14.40
2022-12-09T02:18:03.041Z,14.93
2022-12-09T02:20:44.165Z,12.38
2022-12-09T02:23:23.660Z,11.75
2022-12-09T02:26:13.220Z,16.23
2022-12-09T02:29:04.264Z,12.75
2022-12-09T02:31:43.625Z,14.82
2022-12-09T02:34:22.360Z,21.42
2022-12-09T02:37:08.044Z,18.17
2022-12-09T02:39:40.787Z,17.35
2022-12-09T02:42:13.472Z,20.05
2022-12-09T02:44:43.376Z,21.52
2022-12-09T02:47:18.091Z,21.85
2022-12-09T02:49:51.201Z,31.83
2022-12-09T02:52:21.027Z,27.10
2022-12-09T02:54:49.458Z,20.27
2022-12-09T02:57:26.020Z,30.38
2022-12-09T02:59:53.862Z,20.73
2022-12-09T03:02:32.662Z,18.92
2022-12-09T03:05:21.500Z,23.08
2022-12-09T03:08:11.140Z,26.97
2022-12-09T03:11:19.474Z,18.23
2022-12-09T03:14:21.397Z,22.38
2022-12-09T03:17:13.785Z,30.48
2022-12-09T03:19:46.842Z,17.77
2022-12-09T03:22:22.477Z,17.70
2022-12-09T03:24:57.348Z,39.13
2022-12-09T03:27:43.646Z,27.92
2022-12-09T03:30:12.939Z,19.23
2022-12-09T03:32:42.854Z,24.63
2022-12-09T03:35:41.808Z,20.80
2022-12-09T03:38:13.548Z,20.75
2022-12-09T03:40:42.137Z,28.10
2022-12-09T03:43:22.202Z,17.27
2022-12-09T03:45:54.555Z,19.98
2022-12-09T03:48:23.470Z,16.65
2022-12-09T03:51:11.807Z,18.70
2022-12-09T03:53:52.183Z,26.73
2022-12-09T03:56:29.311Z,19.75
2022-12-09T03:59:00.559Z,17.65
2022-12-09T04:01:29.725Z,18.73
2022-12-09T04:03:57.556Z,19.63
2022-12-09T04:06:25.881Z,26.42
2022-12-09T04:08:55.759Z,28.23
2022-12-09T04:11:27.390Z,24.35
2022-12-09T04:13:54.803Z,23.65
2022-12-09T04:16:22.129Z,40.10
2022-12-09T04:18:49.816Z,19.38
2022-12-09T04:21:17.148Z,22.30
2022-12-09T04:23:44.702Z,19.48
2022-12-09T04:26:21.324Z,21.98
2022-12-09T04:28:50.053Z,18.60
2022-12-09T04:31:19.811Z,27.73
2022-12-09T04:33:47.964Z,24.00
2022-12-09T04:36:18.964Z,41.25
2022-12-09T04:38:47.156Z,27.42
2022-12-09T04:41:15.242Z,34.45
2022-12-09T04:43:42.789Z,34.63
2022-12-09T04:46:16.881Z,39.45
2022-12-09T04:48:45.064Z,33.75
2022-12-09T04:51:14.927Z,31.13
2022-12-09T04:53:42.636Z,37.30
2022-12-09T04:56:19.234Z,35.70
2022-12-09T04:58:48.587Z,50.65
2022-12-09T05:01:23.700Z,45.90
2022-12-09T05:06:23.811Z,26.33
2022-12-09T05:08:52.061Z,24.58
2022-12-09T05:11:20.808Z,29.58
2022-12-09T05:13:48.118Z,19.58
2022-12-09T05:16:18.233Z,22.10
2022-12-09T05:18:47.350Z,31.98
2022-12-09T05:21:18.617Z,21.08
2022-12-09T05:23:46.740Z,15.07
2022-12-09T05:26:18.629Z,21.98
2022-12-09T05:28:46.389Z,19.77
2022-12-09T05:31:19.185Z,16.98
2022-12-09T05:33:47.822Z,16.58
2022-12-09T05:36:18.866Z,30.00
2022-12-09T05:38:48.310Z,27.88
2022-12-09T05:41:18.485Z,34.00
2022-12-09T05:43:46.455Z,22.60
2022-12-09T05:46:14.791Z,28.38
2022-12-09T05:48:42.601Z,26.98
2022-12-09T05:51:27.981Z,21.30
2022-12-09T05:54:00.163Z,22.27
2022-12-09T05:56:28.452Z,23.08
2022-12-09T05:58:56.484Z,23.80
2022-12-09T06:01:25.137Z,47.47
2022-12-09T06:03:54.157Z,42.47
2022-12-09T06:06:26.424Z,38.67
2022-12-09T06:09:00.466Z,38.38
2022-12-09T06:11:28.771Z,31.92
2022-12-09T06:13:56.395Z,38.28
2022-12-09T06:16:24.995Z,32.80
2022-12-09T06:18:52.664Z,39.83
2022-12-09T06:21:21.193Z,33.35
2022-12-09T06:23:50.827Z,46.00
2022-12-09T06:26:24.012Z,40.75
2022-12-09T06:28:53.052Z,53.88
2022-12-09T06:31:21.393Z,34.97
2022-12-09T06:33:58.543Z,46.47
2022-12-09T06:36:29.282Z,30.15
2022-12-09T06:39:01.833Z,28.80
2022-12-09T06:41:33.386Z,29.13
2022-12-09T06:44:00.942Z,26.63
2022-12-09T06:46:28.803Z,37.90
2022-12-09T06:48:56.795Z,32.83
2022-12-09T06:51:26.043Z,32.30
2022-12-09T06:53:54.199Z,30.73
2022-12-09T06:56:22.469Z,33.65
2022-12-09T06:58:50.117Z,32.53
2022-12-09T07:01:24.792Z,40.42
2022-12-09T07:03:56.215Z,24.58
2022-12-09T07:06:29.849Z,27.60
2022-12-09T07:09:14.744Z,27.58
2022-12-09T07:11:43.244Z,26.33
2022-12-09T07:14:11.468Z,26.92
2022-12-09T07:16:39.879Z,33.90
2022-12-09T07:19:07.865Z,31.63
2022-12-09T07:21:36.596Z,32.58
2022-12-09T07:24:04.631Z,22.17
2022-12-09T07:26:33.152Z,26.50
2022-12-09T07:29:06.027Z,27.73
2022-12-09T07:31:34.820Z,24.95
2022-12-09T07:34:04.314Z,38.90
2022-12-09T07:36:35.155Z,30.02
2022-12-09T07:39:13.391Z,31.77
2022-12-09T07:41:41.332Z,27.55
2022-12-09T07:44:10.539Z,25.52
2022-12-09T07:46:38.840Z,24.38
2022-12-09T07:49:06.347Z,27.85
2022-12-09T07:51:34.177Z,21.90
2022-12-09T07:54:01.830Z,27.55
2022-12-09T07:56:29.343Z,29.20
2022-12-09T07:58:58.113Z,30.92
2022-12-09T08:01:29.487Z,28.20
2022-12-09T08:03:57.122Z,28.15
2022-12-09T08:06:28.524Z,26.08
2022-12-09T08:09:01.907Z,22.48
2022-12-09T08:11:31.921Z,27.00
2022-12-09T08:14:10.422Z,24.25
2022-12-09T08:16:41.817Z,19.42
2022-12-09T08:19:10.249Z,21.83
2022-12-09T08:21:38.414Z,21.50
2022-12-09T08:24:07.086Z,23.90
2022-12-09T08:26:36.681Z,30.25
2022-12-09T08:29:09.042Z,24.05
2022-12-09T08:31:40.917Z,25.90
2022-12-09T08:34:09.993Z,20.00
2022-12-09T08:36:37.936Z,19.75
2022-12-09T08:39:06.034Z,21.33
2022-12-09T08:41:36.359Z,16.58
2022-12-09T08:44:11.360Z,19.15
2022-12-09T08:46:42.558Z,36.40
2022-12-09T08:49:11.114Z,24.30
2022-12-09T08:51:39.127Z,20.85
2022-12-09T08:54:06.935Z,22.17
2022-12-09T08:56:34.708Z,23.90
2022-12-09T08:59:02.958Z,27.83
2022-12-09T09:01:34.439Z,30.05
2022-12-09T09:04:05.117Z,28.05
2022-12-09T09:06:32.706Z,28.58
2022-12-09T09:09:00.432Z,30.98
2022-12-09T09:11:28.670Z,29.85
2022-12-09T09:13:56.174Z,27.65
2022-12-09T09:16:25.857Z,26.83
2022-12-09T09:18:54.223Z,25.38
2022-12-09T09:21:24.289Z,20.83
2022-12-09T09:23:51.983Z,23.05
2022-12-09T09:26:23.825Z,21.70
2022-12-09T09:28:53.131Z,20.20
2022-12-09T09:31:23.205Z,20.83
2022-12-09T09:33:51.836Z,19.73
2022-12-09T09:36:23.595Z,21.17
2022-12-09T09:38:53.909Z,17.40
2022-12-09T09:41:45.347Z,21.63
2022-12-09T09:44:34.792Z,21.58
2022-12-09T09:47:22.453Z,20.73
2022-12-09T09:50:31.782Z,22.63
2022-12-09T09:53:24.068Z,21.25
2022-12-09T09:56:28.418Z,20.05
2022-12-09T09:59:22.329Z,18.77
2022-12-09T10:02:28.810Z,16.83
2022-12-09T10:05:30.456Z,16.27
2022-12-09T10:08:17.477Z,18.60
2022-12-09T10:11:09.977Z,19.33
2022-12-09T10:13:48.310Z,38.92
2022-12-09T10:16:50.645Z,29.58
2022-12-09T10:19:31.986Z,29.95
2022-12-09T10:22:08.901Z,28.08
2022-12-09T10:24:40.726Z,21.00
2022-12-09T10:27:45.295Z,22.23
2022-12-09T10:30:18.757Z,32.63
2022-12-09T10:32:46.743Z,32.85
2022-12-09T10:35:14.363Z,26.63
2022-12-09T10:37:42.324Z,19.45
2022-12-09T10:40:10.433Z,19.98
2022-12-09T10:43:17.643Z,17.27
2022-12-09T10:46:17.383Z,19.50
2022-12-09T10:48:47.584Z,19.90
2022-12-09T10:51:30.051Z,18.52
2022-12-09T10:54:25.063Z,15.75
2022-12-09T10:57:12.672Z,17.15
2022-12-09T10:59:54.724Z,18.80
2022-12-09T11:02:23.797Z,25.50
2022-12-09T11:04:51.372Z,30.77
2022-12-09T11:07:27.890Z,24.23
2022-12-09T11:09:58.646Z,23.05
2022-12-09T11:12:38.582Z,19.33
2022-12-09T11:15:40.486Z,21.52
2022-12-09T11:18:20.229Z,17.27
2022-12-09T11:21:00.928Z,19.55
2022-12-09T11:23:30.061Z,17.60
2022-12-09T11:26:05.245Z,18.45
2022-12-09T11:28:40.460Z,16.52
2022-12-09T11:31:35.325Z,18.45
2022-12-09T11:34:27.137Z,20.30
2022-12-09T11:36:58.468Z,21.80
2022-12-09T11:39:34.134Z,22.83
2022-12-09T11:42:22.834Z,20.95
2022-12-09T11:45:06.310Z,24.05
2022-12-09T11:48:25.810Z,19.92
2022-12-09T11:50:33.053Z,20.73
2022-12-09T11:53:12.296Z,25.95
2022-12-09T11:56:11.965Z,21.35
2022-12-09T11:58:55.392Z,27.35
2022-12-09T12:02:26.163Z,27.02
2022-12-09T12:05:21.858Z,29.73
2022-12-09T12:08:05.570Z,26.98
2022-12-09T12:11:08.326Z,23.38
2022-12-09T12:13:46.689Z,20.40
2022-12-09T12:16:42.496Z,20.17
2022-12-09T12:19:41.028Z,20.85
2022-12-09T12:22:26.393Z,22.08
2022-12-09T12:25:17.291Z,21.90
2022-12-09T12:28:22.004Z,21.38
2022-12-09T12:30:52.172Z,23.48
2022-12-09T12:36:43.138Z,24.60
2022-12-09T12:40:05.734Z,27.23
2022-12-09T12:43:14.627Z,23.98
2022-12-09T12:46:27.725Z,23.93
2022-12-09T12:49:22.602Z,23.88
2022-12-09T12:52:39.417Z,24.15
2022-12-09T12:56:02.330Z,24.45
2022-12-09T12:58:52.878Z,19.55
2022-12-09T13:01:53.150Z,21.65
2022-12-09T13:04:52.123Z,24.48
2022-12-09T13:07:58.997Z,22.25
2022-12-09T13:10:52.349Z,21.92
2022-12-09T13:13:52.206Z,21.17
2022-12-09T13:16:28.137Z,27.33
2022-12-09T13:19:15.914Z,25.95
2022-12-09T13:21:46.550Z,24.90
2022-12-09T13:24:39.791Z,20.83
2022-12-09T13:27:23.974Z,24.33
2022-12-09T13:30:00.414Z,23.85
2022-12-09T13:32:45.783Z,24.38
2022-12-09T13:35:32.866Z,26.27
2022-12-09T13:38:01.018Z,24.00
2022-12-09T13:40:37.416Z,26.05
2022-12-09T13:43:15.556Z,27.95
2022-12-09T13:45:43.049Z,26.23
2022-12-09T13:48:17.022Z,28.40
2022-12-09T13:50:58.813Z,27.13
2022-12-09T13:53:30.409Z,26.38
2022-12-09T13:56:16.410Z,24.75
2022-12-09T13:59:24.367Z,25.45
2022-12-09T14:01:54.166Z,26.75
2022-12-09T14:04:27.401Z,30.30
2022-12-09T14:07:12.682Z,26.80
2022-12-09T14:09:48.935Z,33.42
2022-12-09T14:12:25.354Z,27.75
2022-12-09T14:15:00.851Z,32.00
2022-12-09T14:17:30.516Z,27.55
2022-12-09T14:20:21.286Z,34.13
2022-12-09T14:23:14.858Z,25.60
2022-12-09T14:25:58.676Z,25.17
2022-12-09T14:28:40.111Z,23.98
2022-12-09T14:31:09.137Z,22.27
2022-12-09T14:33:46.040Z,22.35
2022-12-09T14:36:13.098Z,25.63
2022-12-09T14:42:27.872Z,25.40
2022-12-09T14:45:35.362Z,22.27
2022-12-09T14:48:11.050Z,23.05
2022-12-09T14:50:38.476Z,26.02
2022-12-09T14:53:22.308Z,31.70
2022-12-09T14:55:50.275Z,27.50
2022-12-09T14:58:21.308Z,28.38
2022-12-09T15:01:01.565Z,33.58
2022-12-09T15:03:34.426Z,28.23
2022-12-09T15:06:16.350Z,35.20
2022-12-09T15:08:43.634Z,28.50
2022-12-09T15:11:18.722Z,28.02
2022-12-09T15:13:49.864Z,30.65
2022-12-09T15:16:21.895Z,29.30
2022-12-09T15:18:50.788Z,34.95
2022-12-09T15:21:31.115Z,34.42
2022-12-09T15:23:59.984Z,27.77
2022-12-09T15:26:36.198Z,27.20
2022-12-09T15:29:05.011Z,24.55
2022-12-09T15:31:33.711Z,24.25
2022-12-09T15:34:13.884Z,30.65
2022-12-09T15:36:54.676Z,27.48
2022-12-09T15:40:00.776Z,32.72
2022-12-09T15:42:31.666Z,31.13
2022-12-09T15:45:13.290Z,33.55
2022-12-09T15:47:47.362Z,32.85
2022-12-09T15:50:33.634Z,36.75
2022-12-09T15:53:22.568Z,31.33
2022-12-09T15:56:21.197Z,44.28
2022-12-09T15:58:52.731Z,38.58
2022-12-09T16:01:32.083Z,30.95
2022-12-09T16:04:01.226Z,29.45
2022-12-09T16:06:36.167Z,36.55
2022-12-09T16:09:17.456Z,38.30
2022-12-09T16:11:48.366Z,39.58
2022-12-09T16:14:18.095Z,28.73
2022-12-09T16:17:01.236Z,32.85
2022-12-09T16:19:33.895Z,36.65
2022-12-09T16:22:06.329Z,36.80
2022-12-09T16:24:51.080Z,33.83
2022-12-09T16:27:27.235Z,28.25
2022-12-09T16:30:01.241Z,30.65
2022-12-09T16:32:33.668Z,33.70
2022-12-09T16:35:09.852Z,37.10
2022-12-09T16:37:58.106Z,42.03
2022-12-09T16:40:25.142Z,33.47
2022-12-09T16:43:14.735Z,25.98
2022-12-09T16:45:49.798Z,20.80
2022-12-09T16:48:18.964Z,17.70
2022-12-09T16:51:08.210Z,16.70
2022-12-09T16:53:47.299Z,10.32
2022-12-09T16:56:27.959Z,11.75
2022-12-09T16:58:56.171Z,10.98
2022-12-09T17:01:30.061Z,12.68
2022-12-09T17:04:22.588Z,9.45
2022-12-09T17:06:49.762Z,10.45
2022-12-09T17:09:17.029Z,14.70
2022-12-09T17:11:48.782Z,13.13
2022-12-09T17:14:17.682Z,9.18
2022-12-09T17:16:45.110Z,14.45
2022-12-09T17:19:13.475Z,24.33
2022-12-09T17:21:40.789Z,13.82
2022-12-09T17:24:11.287Z,12.73
2022-12-09T17:26:38.645Z,14.90
2022-12-09T17:29:06.582Z,17.33
2022-12-09T17:31:33.917Z,14.70
2022-12-09T17:34:01.291Z,13.23
2022-12-09T17:36:28.667Z,9.05
2022-12-09T17:38:59.937Z,11.13
2022-12-09T17:41:27.321Z,10.90
2022-12-09T17:43:57.343Z,10.23
2022-12-09T17:46:24.937Z,16.15
2022-12-09T17:48:52.374Z,14.02
2022-12-09T17:51:19.777Z,10.10
2022-12-09T17:53:49.676Z,12.63
2022-12-09T17:56:21.440Z,12.07
2022-12-09T17:59:00.358Z,11.95
2022-12-09T18:01:28.028Z,14.65
2022-12-09T18:04:04.304Z,8.18
2022-12-09T18:06:33.680Z,11.40
2022-12-09T18:09:03.055Z,12.90
2022-12-09T18:11:30.280Z,15.95
2022-12-09T18:13:57.832Z,10.45
2022-12-09T18:16:25.113Z,8.73
2022-12-09T18:18:52.960Z,10.77
2022-12-09T18:21:20.777Z,10.73
2022-12-09T18:23:48.672Z,10.40
2022-12-09T18:26:18.762Z,19.38
2022-12-09T18:28:46.406Z,9.02
2022-12-09T18:31:18.428Z,8.07
2022-12-09T18:33:45.958Z,7.53
2022-12-09T18:36:20.124Z,7.00
2022-12-09T18:38:48.131Z,8.73
2022-12-09T18:41:29.491Z,10.25
2022-12-09T18:44:01.984Z,8.50
2022-12-09T18:46:37.788Z,9.75
2022-12-09T18:49:19.160Z,8.13
2022-12-09T18:51:48.008Z,9.30
2022-12-09T18:54:22.890Z,9.63
2022-12-09T18:56:51.069Z,8.98
2022-12-09T18:59:20.055Z,7.13
2022-12-09T19:01:48.557Z,9.27
2022-12-09T19:04:25.500Z,9.55
2022-12-09T19:06:56.558Z,9.13
2022-12-09T19:09:32.912Z,8.07
2022-12-09T19:12:23.132Z,9.25
2022-12-09T19:14:50.332Z,8.00
2022-12-09T19:17:18.230Z,10.77
2022-12-09T19:19:46.665Z,7.82
2022-12-09T19:22:14.114Z,9.30
2022-12-09T19:24:43.186Z,7.80
2022-12-09T19:27:11.462Z,9.35
2022-12-09T19:29:39.209Z,10.23
2022-12-09T19:32:23.644Z,9.55
2022-12-09T19:34:53.640Z,7.93
2022-12-09T19:37:21.025Z,9.48
2022-12-09T19:39:48.574Z,9.77
2022-12-09T19:42:16.203Z,7.90
2022-12-09T19:45:01.047Z,12.13
2022-12-09T19:47:29.289Z,9.43
2022-12-09T19:49:56.465Z,8.32
2022-12-09T19:52:23.665Z,10.05
2022-12-09T19:54:50.859Z,8.35
2022-12-09T19:57:18.070Z,9.15
2022-12-09T19:59:46.810Z,10.68
2022-12-09T20:02:14.470Z,7.53
2022-12-09T20:04:50.390Z,8.68
2022-12-09T20:07:19.123Z,9.25
2022-12-09T20:09:46.895Z,9.23
2022-12-09T20:12:14.276Z,6.38
2022-12-09T20:14:42.474Z,8.98
2022-12-09T20:17:09.663Z,9.90
2022-12-09T20:19:36.925Z,8.85
2022-12-09T20:22:04.385Z,7.85
2022-12-09T20:24:31.856Z,8.63
2022-12-09T20:26:59.043Z,8.93
2022-12-09T20:29:26.185Z,10.13
2022-12-09T20:31:53.545Z,9.95
2022-12-09T20:34:20.860Z,11.32
2022-12-09T20:36:48.099Z,13.43
2022-12-09T20:39:20.299Z,11.25
2022-12-09T20:41:48.659Z,10.98
2022-12-09T20:44:19.303Z,8.43
2022-12-09T20:46:49.661Z,9.55
2022-12-09T20:49:19.584Z,9.00
2022-12-09T20:51:48.450Z,9.90
2022-12-09T20:54:15.771Z,9.45
2022-12-09T20:56:43.094Z,11.23
2022-12-09T20:59:12.983Z,9.77
2022-12-09T21:01:40.837Z,9.43
2022-12-09T21:04:08.270Z,9.85
2022-12-09T21:06:38.216Z,9.13
2022-12-09T21:09:14.179Z,9.95
2022-12-09T21:11:41.519Z,9.13
2022-12-09T21:14:11.091Z,9.70
2022-12-09T21:16:43.136Z,17.85
2022-12-09T21:19:15.488Z,10.38
2022-12-09T21:21:50.481Z,10.10
2022-12-09T21:24:19.828Z,8.60
2022-12-09T21:26:47.277Z,9.00
2022-12-09T21:29:14.939Z,9.95
2022-12-09T21:31:43.527Z,8.60
2022-12-09T21:34:10.952Z,10.50
2022-12-09T21:36:43.438Z,8.48
2022-12-09T21:39:14.606Z,8.93
2022-12-09T21:41:42.903Z,8.95
2022-12-09T21:44:16.683Z,7.30
2022-12-09T21:46:44.798Z,8.30
2022-12-09T21:49:14.220Z,8.48
2022-12-09T21:51:43.256Z,7.57
2022-12-09T21:54:10.590Z,7.22
2022-12-09T21:56:37.904Z,7.90
2022-12-09T21:59:07.038Z,7.03
2022-12-09T22:01:40.792Z,7.28
2022-12-09T22:04:15.465Z,7.55
2022-12-09T22:06:48.786Z,7.93
2022-12-09T22:09:20.510Z,8.70
2022-12-09T22:11:48.112Z,6.97
2022-12-09T22:14:15.303Z,7.22
2022-12-09T22:16:45.244Z,7.68
2022-12-09T22:19:20.269Z,8.18
2022-12-09T22:21:48.923Z,6.68
2022-12-09T22:24:17.288Z,6.47
2022-12-09T22:26:44.861Z,6.88
2022-12-09T22:29:15.300Z,8.50
2022-12-09T22:31:44.051Z,8.02
2022-12-09T22:34:17.976Z,8.63
2022-12-09T22:36:47.338Z,9.40
2022-12-09T22:41:46.155Z,7.07
2022-12-09T22:44:17.278Z,8.02
2022-12-09T22:46:45.408Z,6.68
2022-12-09T22:49:14.595Z,8.55
2022-12-09T22:51:42.772Z,6.53
2022-12-09T22:54:10.664Z,8.40
2022-12-09T22:56:41.025Z,6.32
2022-12-09T22:59:08.847Z,8.45
2022-12-09T23:01:36.743Z,9.68
2022-12-09T23:04:06.342Z,8.25
2022-12-09T23:06:37.188Z,8.80
2022-12-09T23:09:07.298Z,7.60
2022-12-09T23:11:34.801Z,7.97
2022-12-09T23:14:02.283Z,6.65
2022-12-09T23:16:29.823Z,6.45
2022-12-09T23:18:58.809Z,8.10
2022-12-09T23:21:33.248Z,7.93
2022-12-09T23:24:09.553Z,8.48
2022-12-09T23:26:38.887Z,8.50
2022-12-09T23:31:36.882Z,6.80
2022-12-09T23:34:06.414Z,7.63
2022-12-09T23:36:37.781Z,7.55
2022-12-09T23:39:10.430Z,7.18
2022-12-09T23:41:43.596Z,6.63
2022-12-09T23:44:14.533Z,7.88
2022-12-09T23:46:42.166Z,5.95
2022-12-09T23:49:09.744Z,5.45
2022-12-09T23:51:42.826Z,8.05
2022-12-09T23:54:13.809Z,6.53
2022-12-09T23:56:49.056Z,7.85
2022-12-09T23:59:20.252Z,7.00
